Time;durP1;ratioP1;P1;durP2;ratioP2;P2;SDS_P1;SDS_P2;PMS_P1;PMS_P2;Temp;Humidity;BMP_temperature;BMP_pressure;BME280_temperature;BME280_humidity;BME280_pressure;Samples;Min_cycle;Max_cycle;Signal;HPM_P1;HPM_P2
2021/01/02 00:00:54;;;;;;;;;65.25;49.00;;;;;-1.46;88.51;101468.81;3725915;37;20738;-61
2021/01/02 00:04:10;;;;;;;;;62.50;48.75;;;;;-1.31;88.37;101476.88;3725442;38;20743;-61
2021/01/02 00:07:10;;;;;;;;;61.75;50.50;;;;;-1.26;88.13;101480.13;3725780;38;20746;-61
2021/01/02 00:09:43;;;;;;;;;70.00;53.00;;;;;-1.27;88.02;101481.06;3725890;37;20730;-61
2021/01/02 00:12:39;;;;;;;;;62.25;49.50;;;;;-1.43;87.62;101479.25;3725686;38;20711;-62
2021/01/02 00:15:31;;;;;;;;;62.00;46.25;;;;;-1.54;87.83;101489.62;3725833;37;20732;-61
2021/01/02 00:18:31;;;;;;;;;70.00;53.50;;;;;-1.62;87.80;101491.00;3725409;37;20721;-60
2021/01/02 00:21:26;;;;;;;;;64.00;46.50;;;;;-1.70;87.72;101494.06;3725491;37;20777;-61
2021/01/02 00:24:21;;;;;;;;;60.75;48.75;;;;;-1.76;88.03;101495.25;3725842;38;20660;-61
2021/01/02 00:26:58;;;;;;;;;54.25;41.50;;;;;-1.85;87.79;101495.72;3725623;37;20679;-60
2021/01/02 00:29:33;;;;;;;;;52.00;44.50;;;;;-1.76;87.78;101513.81;3725742;37;20689;-61
2021/01/02 00:32:33;;;;;;;;;58.75;47.25;;;;;-1.75;87.93;101526.16;3725350;37;20678;-62
2021/01/02 00:35:24;;;;;;;;;64.50;51.50;;;;;-1.93;88.06;101500.59;3725573;37;20660;-61
2021/01/02 00:38:05;;;;;;;;;50.50;42.00;;;;;-1.79;88.28;101529.91;3725269;37;20697;-60
2021/01/02 00:40:37;;;;;;;;;50.50;42.00;;;;;-1.84;88.08;101531.09;3725414;38;20694;-61
2021/01/02 00:43:07;;;;;;;;;54.50;45.75;;;;;-1.86;88.04;101533.81;3725557;37;20669;-62
2021/01/02 00:45:43;;;;;;;;;59.75;44.50;;;;;-1.82;88.33;101526.56;3726050;37;20804;-61
2021/01/02 00:48:11;;;;;;;;;58.25;47.00;;;;;-1.79;88.16;101523.72;3725278;38;20840;-61
2021/01/02 00:50:39;;;;;;;;;56.50;44.50;;;;;-1.81;88.04;101522.97;3725711;38;20673;-62
2021/01/02 00:53:53;;;;;;;;;62.50;46.00;;;;;-1.84;88.08;101523.12;3725758;38;20676;-62
2021/01/02 00:56:55;;;;;;;;;48.00;37.25;;;;;-1.76;88.20;101534.19;3725595;38;20654;-61
2021/01/02 00:59:56;;;;;;;;;51.75;42.00;;;;;-1.74;88.11;101532.31;3725718;37;20668;-60
2021/01/02 01:03:04;;;;;;;;;53.75;43.00;;;;;-4.58;87.77;101060.72;3725848;37;20641;-59
2021/01/02 01:05:48;;;;;;;;;52.00;41.75;;;;;-1.93;87.84;101515.63;3725834;37;20651;-62
2021/01/02 01:08:17;;;;;;;;;61.25;50.00;;;;;-1.94;87.76;101527.19;3725790;38;20643;-62
2021/01/02 01:10:45;;;;;;;;;62.00;45.75;;;;;-1.96;87.99;101535.22;3725388;38;20636;-62
2021/01/02 01:13:25;;;;;;;;;60.00;46.75;;;;;-1.90;88.33;101521.66;3728628;37;20633;-61
2021/01/02 01:15:51;;;;;;;;;56.25;42.50;;;;;-1.86;87.79;101543.56;3729963;38;20627;-59
2021/01/02 01:18:53;;;;;;;;;60.50;48.00;;;;;-5.64;87.42;100917.19;3726183;37;20652;-60
2021/01/02 01:21:31;;;;;;;;;64.50;46.50;;;;;-1.94;88.08;101545.75;3730002;38;20587;-61
2021/01/02 01:24:42;;;;;;;;;52.75;44.00;;;;;-1.95;88.01;101544.03;3730700;38;20627;-60
2021/01/02 01:27:56;;;;;;;;;60.25;46.25;;;;;-1.96;88.22;101543.19;3726506;38;20636;-60
2021/01/02 01:30:23;;;;;;;;;64.00;47.50;;;;;-1.88;88.13;101545.44;3725718;38;20632;-60
2021/01/02 01:33:08;;;;;;;;;56.00;43.75;;;;;-1.83;87.92;101549.56;3725678;37;20602;-63
2021/01/02 01:35:44;;;;;;;;;62.00;47.00;;;;;-1.89;87.99;101549.03;3725837;37;20602;-61
2021/01/02 01:38:17;;;;;;;;;64.75;47.75;;;;;-1.91;87.87;101550.91;3725393;37;20597;-61
2021/01/02 01:40:45;;;;;;;;;54.25;43.50;;;;;-2.02;87.65;101554.09;3725539;37;20639;-63
2021/01/02 01:43:50;;;;;;;;;63.00;44.75;;;;;-2.04;87.60;101563.94;3725716;38;20615;-61
2021/01/02 01:46:24;;;;;;;;;64.25;44.75;;;;;-2.16;87.68;101562.78;3726024;37;20606;-63
2021/01/02 01:49:23;;;;;;;;;57.00;44.75;;;;;-2.22;87.71;101564.91;3726256;38;20571;-60
2021/01/02 01:52:02;;;;;;;;;67.25;47.75;;;;;-2.30;87.86;101572.37;3725433;37;20632;-61
2021/01/02 01:55:04;;;;;;;;;68.25;53.50;;;;;-2.32;87.97;101569.81;3725800;38;20683;-63
2021/01/02 01:57:37;;;;;;;;;65.50;50.00;;;;;-2.35;88.02;101573.47;3725776;37;20572;-62
2021/01/02 02:00:19;;;;;;;;;62.25;45.25;;;;;-2.29;88.25;101574.94;3725374;37;20579;-60
2021/01/02 02:03:02;;;;;;;;;61.00;46.50;;;;;-2.26;87.98;101566.84;3726037;38;20600;-61
2021/01/02 02:05:38;;;;;;;;;55.00;43.25;;;;;-2.19;88.13;101580.66;3725909;37;20578;-61
2021/01/02 02:08:08;;;;;;;;;63.00;46.25;;;;;-2.20;87.93;101581.59;3725947;38;20577;-61
2021/01/02 02:10:47;;;;;;;;;49.00;44.00;;;;;-2.21;87.84;101582.53;3725735;37;20583;-61
2021/01/02 02:13:42;;;;;;;;;59.00;44.75;;;;;-2.23;87.73;101579.94;3725413;37;20580;-61
2021/01/02 02:16:13;;;;;;;;;67.00;48.00;;;;;-2.24;87.51;101580.88;3725592;38;20560;-60
2021/01/02 02:18:44;;;;;;;;;61.00;48.50;;;;;-2.25;87.72;101586.25;3725707;38;20569;-60
2021/01/02 02:21:12;;;;;;;;;61.50;45.50;;;;;-2.29;87.86;101590.84;3725310;38;20533;-61
2021/01/02 02:23:48;;;;;;;;;65.50;52.00;;;;;-2.30;87.55;101580.34;3725860;37;20562;-60
2021/01/02 02:26:36;;;;;;;;;65.25;49.50;;;;;-2.41;87.43;101589.66;3725590;37;20538;-60
2021/01/02 02:29:39;;;;;;;;;55.25;42.75;;;;;-2.46;87.72;101586.37;3725371;37;20558;-60
2021/01/02 02:32:09;;;;;;;;;60.00;44.25;;;;;-2.38;88.20;101586.00;3725646;37;20532;-60
2021/01/02 02:34:37;;;;;;;;;50.25;42.75;;;;;-2.30;87.75;101591.78;3725589;38;20540;-62
2021/01/02 02:37:04;;;;;;;;;61.25;44.50;;;;;-2.24;87.86;101595.94;3725725;37;20548;-61
2021/01/02 02:39:30;;;;;;;;;59.75;46.00;;;;;-2.31;87.56;101591.88;3725752;37;20546;-60
2021/01/02 02:42:02;;;;;;;;;57.50;46.75;;;;;-2.37;87.51;101593.88;3725843;37;20514;-61
2021/01/02 02:44:36;;;;;;;;;62.00;47.25;;;;;-2.42;87.65;101587.94;3725444;37;20532;-62
2021/01/02 02:47:04;;;;;;;;;59.75;48.25;;;;;-2.46;87.19;101589.03;3725929;37;20501;-60
2021/01/02 02:49:35;;;;;;;;;51.00;43.75;;;;;-2.43;87.72;101595.97;3725811;38;20519;-62
2021/01/02 02:52:22;;;;;;;;;55.00;43.75;;;;;-2.39;87.48;101601.06;3725949;37;20506;-60
2021/01/02 02:54:52;;;;;;;;;54.25;37.75;;;;;-2.43;87.70;101591.53;3725922;37;20511;-60
2021/01/02 02:57:21;;;;;;;;;50.00;41.75;;;;;-2.40;87.66;101601.12;3725560;38;20529;-61
2021/01/02 02:59:50;;;;;;;;;70.00;50.00;;;;;-2.44;87.28;101596.91;3725407;38;20516;-60
2021/01/02 03:02:17;;;;;;;;;54.75;42.25;;;;;-2.57;87.15;101590.50;3725927;38;20514;-61
2021/01/02 03:04:43;;;;;;;;;67.75;49.50;;;;;-2.64;87.42;101592.59;3726036;38;20497;-60
2021/01/02 03:07:13;;;;;;;;;64.00;50.50;;;;;-2.59;87.35;101597.66;3725752;38;20481;-60
2021/01/02 03:09:42;;;;;;;;;49.00;40.75;;;;;-2.55;87.78;101602.72;3725469;38;20474;-62
2021/01/02 03:12:09;;;;;;;;;55.25;46.25;;;;;-2.43;87.64;101609.22;3725389;38;20487;-62
2021/01/02 03:14:36;;;;;;;;;65.25;46.00;;;;;-2.40;87.63;101599.34;3725415;38;20482;-61
2021/01/02 03:17:06;;;;;;;;;47.50;42.75;;;;;-2.40;87.60;101611.72;3725812;38;20478;-62
2021/01/02 03:19:33;;;;;;;;;57.25;46.50;;;;;-2.64;86.97;101591.75;3725416;37;20545;-61
2021/01/02 03:22:01;;;;;;;;;59.75;48.00;;;;;-2.60;87.04;101612.72;3725432;37;20487;-60
2021/01/02 03:24:32;;;;;;;;;63.50;50.50;;;;;-2.64;87.12;101610.28;3725564;38;20469;-60
2021/01/02 03:26:58;;;;;;;;;66.75;52.75;;;;;-2.59;87.39;101610.91;3725589;37;20489;-62
2021/01/02 03:29:24;;;;;;;;;68.00;49.50;;;;;-2.58;87.24;101612.63;3725403;38;20470;-62
2021/01/02 03:31:51;;;;;;;;;66.75;49.50;;;;;-2.60;87.24;101609.22;3725810;37;20467;-60
2021/01/02 03:34:17;;;;;;;;;63.50;49.00;;;;;-2.56;87.40;101621.34;3725324;38;20467;-61
2021/01/02 03:36:45;;;;;;;;;72.00;53.25;;;;;-2.54;87.61;101612.41;3725489;37;20443;-63
2021/01/02 03:39:11;;;;;;;;;64.50;49.25;;;;;-2.47;87.81;101616.47;3725752;38;20453;-61
2021/01/02 03:41:37;;;;;;;;;62.00;46.50;;;;;-2.55;87.29;101599.22;3725860;38;20442;-60
2021/01/02 03:44:04;;;;;;;;;67.25;51.50;;;;;-2.47;87.50;101623.56;3725813;38;20427;-62
2021/01/02 03:46:32;;;;;;;;;69.50;54.50;;;;;-2.73;87.04;101604.50;3725828;38;20450;-60
2021/01/02 03:48:59;;;;;;;;;65.00;50.25;;;;;-2.61;87.30;101634.84;3725976;37;20436;-60
2021/01/02 03:51:27;;;;;;;;;69.25;50.75;;;;;-2.56;87.51;101631.97;3725776;37;20451;-62
2021/01/02 03:53:54;;;;;;;;;73.50;51.75;;;;;-2.53;87.42;101635.31;3725507;37;20415;-62
2021/01/02 03:56:21;;;;;;;;;69.00;51.50;;;;;-2.63;86.90;101631.41;3725496;37;20421;-60
2021/01/02 03:58:53;;;;;;;;;68.75;53.00;;;;;-2.73;87.20;101631.00;3725362;38;20429;-61
2021/01/02 04:01:21;;;;;;;;;73.25;50.25;;;;;-2.65;87.30;101641.22;3725936;37;20420;-63
2021/01/02 04:03:50;;;;;;;;;71.50;55.50;;;;;-2.56;87.38;101643.41;3725340;37;20492;-62
2021/01/02 04:06:27;;;;;;;;;79.50;56.75;;;;;-2.46;87.39;101643.84;3725744;37;20412;-62
2021/01/02 04:08:59;;;;;;;;;69.75;54.25;;;;;-2.44;87.19;101645.47;3725463;38;20419;-60
2021/01/02 04:11:27;;;;;;;;;69.50;54.25;;;;;-2.35;87.59;101647.69;3725860;37;20391;-61
2021/01/02 04:13:53;;;;;;;;;73.25;53.00;;;;;-2.24;87.75;101651.63;3725742;37;20400;-60
2021/01/02 04:16:20;;;;;;;;;76.00;50.50;;;;;-2.14;87.90;101655.53;3725794;37;20391;-60
2021/01/02 04:18:46;;;;;;;;;65.25;49.00;;;;;-2.07;87.60;101660.44;3725832;37;20397;-61
2021/01/02 04:21:13;;;;;;;;;68.00;46.50;;;;;-1.99;87.74;101665.38;3726652;37;20405;-61
2021/01/02 04:23:44;;;;;;;;;67.00;49.50;;;;;-1.82;88.16;101668.03;3726501;37;20375;-61
2021/01/02 04:26:10;;;;;;;;;58.50;49.50;;;;;-1.71;87.93;101663.03;3725372;37;20380;-60
2021/01/02 04:28:37;;;;;;;;;49.75;36.50;;;;;-1.57;88.27;101670.31;3725771;38;20374;-61
2021/01/02 04:31:03;;;;;;;;;39.00;33.50;;;;;-1.42;88.49;101672.16;3725788;38;20395;-60
2021/01/02 04:33:31;;;;;;;;;31.50;23.75;;;;;-1.26;88.37;101674.00;3725944;37;20400;-61
2021/01/02 04:35:57;;;;;;;;;30.00;26.00;;;;;-1.18;88.50;101672.66;3725691;37;20334;-61
2021/01/02 04:38:23;;;;;;;;;27.75;24.75;;;;;-1.16;88.42;101683.22;3725988;37;20312;-60
2021/01/02 04:41:00;;;;;;;;;28.75;24.00;;;;;-1.13;88.15;101675.94;3725827;37;20294;-61
2021/01/02 04:43:27;;;;;;;;;31.00;24.25;;;;;-1.05;88.68;101670.22;3725820;38;20294;-62
2021/01/02 04:45:56;;;;;;;;;20.25;18.50;;;;;-0.88;88.43;101685.22;3725792;38;20294;-61
2021/01/02 04:48:24;;;;;;;;;18.50;14.50;;;;;-0.91;88.47;101693.38;3725431;37;20312;-62
2021/01/02 04:50:51;;;;;;;;;25.50;19.00;;;;;-1.02;88.34;101672.69;3725402;38;20284;-63
2021/01/02 04:53:21;;;;;;;;;27.00;21.25;;;;;-0.94;88.17;101691.72;3725539;37;20301;-61
2021/01/02 04:55:47;;;;;;;;;20.50;17.00;;;;;-1.20;88.16;101661.25;3728736;37;20276;-60
2021/01/02 04:58:18;;;;;;;;;29.00;23.25;;;;;-0.92;88.56;101696.97;3730999;38;20298;-61
2021/01/02 05:00:47;;;;;;;;;30.50;23.75;;;;;-0.88;88.68;101702.03;3727141;38;20284;-59
2021/01/02 05:03:17;;;;;;;;;27.00;22.00;;;;;-0.85;88.38;101701.00;3728582;38;20274;-62
2021/01/02 05:05:50;;;;;;;;;27.00;24.50;;;;;-0.80;88.55;101699.81;3730758;37;20262;-60
2021/01/02 05:08:17;;;;;;;;;29.25;26.25;;;;;-0.76;88.79;101703.19;3730327;38;20295;-60
2021/01/02 05:11:04;;;;;;;;;29.00;24.75;;;;;-0.80;88.64;101696.31;3725412;37;20364;-60
2021/01/02 05:13:38;;;;;;;;;21.00;16.25;;;;;-0.71;88.72;101704.63;3725928;37;20274;-60
2021/01/02 05:16:30;;;;;;;;;32.75;23.50;;;;;-0.67;88.64;101689.38;3725924;38;20255;-59
2021/01/02 05:19:01;;;;;;;;;25.50;23.00;;;;;-0.60;88.79;101693.44;3726035;38;20295;-59
2021/01/02 05:21:30;;;;;;;;;28.25;22.25;;;;;-0.59;88.62;101686.31;3725827;37;20266;-59
2021/01/02 05:24:20;;;;;;;;;32.50;25.75;;;;;-0.48;88.71;101708.69;3725422;38;20242;-60
2021/01/02 05:26:58;;;;;;;;;24.25;21.25;;;;;-0.47;88.94;101713.06;3725707;38;20249;-61
2021/01/02 05:29:32;;;;;;;;;29.00;27.25;;;;;-0.44;88.68;101717.34;3725653;38;20237;-60
2021/01/02 05:32:04;;;;;;;;;29.75;25.00;;;;;-0.38;89.07;101723.19;3725555;37;20336;-60
2021/01/02 05:34:33;;;;;;;;;29.75;23.75;;;;;-0.32;88.87;101739.75;3724948;37;20336;-59
2021/01/02 05:37:09;;;;;;;;;24.50;22.50;;;;;-0.26;88.83;101740.28;3724826;37;20260;-59
2021/01/02 05:39:41;;;;;;;;;27.25;23.25;;;;;-0.24;88.84;101740.19;3725952;37;20230;-60
2021/01/02 05:42:09;;;;;;;;;24.00;20.75;;;;;-0.22;89.17;101738.28;3725808;38;20234;-60
2021/01/02 05:44:38;;;;;;;;;28.50;23.25;;;;;-0.13;88.88;101735.97;3725804;37;20226;-60
2021/01/02 05:47:06;;;;;;;;;31.75;26.00;;;;;-0.13;88.91;101746.63;3725380;38;20237;-62
2021/01/02 05:49:47;;;;;;;;;22.25;19.25;;;;;-0.16;89.01;101752.13;3725755;38;20241;-61
2021/01/02 05:52:13;;;;;;;;;29.25;22.75;;;;;-0.32;89.07;101726.44;3725609;37;20231;-61
2021/01/02 05:54:51;;;;;;;;;27.75;24.00;;;;;-0.15;88.85;101747.66;3725840;37;20227;-61
2021/01/02 05:57:45;;;;;;;;;33.25;28.50;;;;;-0.19;89.07;101746.09;3725486;37;20215;-61
2021/01/02 06:00:19;;;;;;;;;25.00;22.50;;;;;-0.06;89.00;101760.44;3725638;37;20216;-63
2021/01/02 06:02:46;;;;;;;;;30.25;26.50;;;;;-0.05;89.05;101762.16;3725484;38;20221;-61
2021/01/02 06:05:13;;;;;;;;;29.25;23.00;;;;;-0.03;89.07;101765.59;3725712;38;20204;-63
2021/01/02 06:07:50;;;;;;;;;25.25;23.00;;;;;-0.04;89.04;101769.22;3725496;38;20231;-62
2021/01/02 06:10:17;;;;;;;;;33.50;28.00;;;;;0.00;89.32;101770.75;3725494;37;20209;-62
2021/01/02 06:12:44;;;;;;;;;23.00;21.75;;;;;0.01;89.08;101775.09;3725397;37;20208;-63
2021/01/02 06:15:18;;;;;;;;;24.50;22.50;;;;;-0.01;88.99;101774.34;3725907;38;20171;-61
2021/01/02 06:17:48;;;;;;;;;29.75;24.50;;;;;0.08;89.34;101775.63;3725986;38;20201;-61
2021/01/02 06:20:17;;;;;;;;;31.00;25.25;;;;;0.10;89.32;101779.03;3725748;38;20199;-61
2021/01/02 06:22:46;;;;;;;;;26.75;23.50;;;;;0.08;89.24;101781.78;3725841;37;20194;-62
2021/01/02 06:25:14;;;;;;;;;33.00;25.75;;;;;0.08;88.92;101786.25;3725544;38;20182;-60
2021/01/02 06:27:45;;;;;;;;;28.00;22.00;;;;;0.07;89.23;101788.06;3725945;38;20218;-60
2021/01/02 06:30:17;;;;;;;;;28.75;22.50;;;;;0.12;88.96;101793.13;3725791;38;20161;-62
2021/01/02 06:32:45;;;;;;;;;36.25;30.25;;;;;0.19;89.16;101803.34;3725385;38;20148;-61
2021/01/02 06:35:22;;;;;;;;;36.50;33.75;;;;;0.13;88.78;101793.03;3725549;37;20188;-61
2021/01/02 06:38:06;;;;;;;;;33.50;27.50;;;;;0.16;89.19;101808.84;3725904;37;20160;-61
2021/01/02 06:40:38;;;;;;;;;28.00;21.25;;;;;0.19;88.97;101814.00;3725852;37;20169;-61
2021/01/02 06:43:13;;;;;;;;;30.75;26.50;;;;;0.19;88.81;101821.97;3725753;37;20157;-61
2021/01/02 06:45:43;;;;;;;;;29.75;24.25;;;;;0.20;88.88;101809.53;3725448;37;20245;-60
2021/01/02 06:48:38;;;;;;;;;30.75;25.00;;;;;0.20;88.71;101825.50;3726548;38;20127;-60
2021/01/02 06:51:28;;;;;;;;;25.75;22.75;;;;;0.08;88.65;101803.09;3727148;38;20131;-60
2021/01/02 06:53:55;;;;;;;;;39.75;27.50;;;;;-0.03;88.61;101810.84;3726873;38;20146;-61
2021/01/02 06:56:32;;;;;;;;;27.75;24.25;;;;;-0.01;88.71;101820.47;3726955;38;20153;-61
2021/01/02 06:59:04;;;;;;;;;33.50;24.50;;;;;0.11;89.17;101823.34;3725727;38;20116;-61
2021/01/02 07:01:43;;;;;;;;;30.50;25.00;;;;;0.18;89.09;101830.06;3725687;37;20127;-63
2021/01/02 07:04:10;;;;;;;;;32.50;27.50;;;;;0.17;89.08;101818.53;3724868;38;20113;-61
2021/01/02 07:06:38;;;;;;;;;25.75;21.75;;;;;0.26;88.93;101826.03;3725227;37;20122;-62
2021/01/02 07:09:25;;;;;;;;;28.50;22.75;;;;;0.28;88.96;101815.28;3725316;38;20140;-61
2021/01/02 07:12:06;;;;;;;;;35.50;29.25;;;;;0.23;88.75;101820.88;3725523;37;20125;-60
2021/01/02 07:14:35;;;;;;;;;34.50;28.25;;;;;0.34;89.17;101830.91;3725432;37;20134;-61
2021/01/02 07:17:12;;;;;;;;;30.75;25.75;;;;;0.47;89.05;101818.62;3725265;37;20114;-60
2021/01/02 07:19:47;;;;;;;;;28.00;24.75;;;;;0.54;88.86;101835.94;3725129;38;20133;-60
2021/01/02 07:22:31;;;;;;;;;31.75;28.00;;;;;0.56;88.73;101836.72;3724766;37;20116;-61
2021/01/02 07:25:06;;;;;;;;;33.75;27.25;;;;;0.53;88.91;101822.72;3724743;38;20106;-60
2021/01/02 07:27:35;;;;;;;;;28.75;28.50;;;;;0.49;88.70;101823.84;3725515;37;20116;-60
2021/01/02 07:30:11;;;;;;;;;22.50;18.00;;;;;0.70;88.50;101845.72;3725752;37;20098;-61
2021/01/02 07:32:43;;;;;;;;;28.50;22.50;;;;;0.70;88.81;101837.72;3725855;37;20090;-62
2021/01/02 07:35:15;;;;;;;;;36.25;30.75;;;;;0.62;88.80;101815.03;3725379;37;20083;-60
2021/01/02 07:37:45;;;;;;;;;38.25;27.25;;;;;0.83;88.70;101838.72;3726041;38;20093;-61
2021/01/02 07:40:20;;;;;;;;;27.00;24.50;;;;;0.85;88.73;101851.00;3725408;37;20094;-60
2021/01/02 07:42:54;;;;;;;;;27.00;23.25;;;;;0.75;88.81;101836.50;3725253;37;20075;-62
2021/01/02 07:45:30;;;;;;;;;36.00;29.00;;;;;0.90;88.75;101846.28;3725826;38;20073;-60
2021/01/02 07:48:17;;;;;;;;;42.75;28.75;;;;;0.91;88.55;101837.34;3725964;37;20082;-60
2021/01/02 07:50:43;;;;;;;;;33.25;30.75;;;;;1.03;88.92;101850.87;3725819;37;20066;-61
2021/01/02 07:53:10;;;;;;;;;31.75;24.75;;;;;1.03;88.70;101851.75;3725803;37;20076;-61
2021/01/02 07:55:42;;;;;;;;;27.50;26.00;;;;;0.99;88.72;101844.88;3725380;37;20048;-62
2021/01/02 07:58:08;;;;;;;;;26.50;23.00;;;;;1.08;88.51;101841.62;3725524;37;20055;-60
2021/01/02 08:00:38;;;;;;;;;32.00;28.25;;;;;1.00;88.31;101841.28;3725877;38;20028;-60
2021/01/02 08:03:05;;;;;;;;;29.75;28.50;;;;;0.39;88.13;101740.12;3725435;38;20043;-61
2021/01/02 08:05:35;;;;;;;;;26.00;21.00;;;;;0.98;88.26;101845.84;3725811;37;20052;-62
2021/01/02 08:08:05;;;;;;;;;33.25;26.25;;;;;0.55;88.06;101776.37;3725451;38;20136;-61
2021/01/02 08:10:32;;;;;;;;;27.75;25.25;;;;;0.96;88.62;101845.06;3725681;37;20033;-61
2021/01/02 08:13:00;;;;;;;;;32.50;23.50;;;;;0.86;88.41;101847.41;3725810;37;20057;-60
2021/01/02 08:15:37;;;;;;;;;32.25;25.00;;;;;0.72;88.06;101850.00;3725930;37;20093;-60
2021/01/02 08:18:12;;;;;;;;;28.75;24.75;;;;;0.81;88.64;101853.94;3726007;37;20135;-60
2021/01/02 08:20:39;;;;;;;;;30.25;25.75;;;;;0.97;88.74;101850.31;3725427;37;19976;-62
2021/01/02 08:23:15;;;;;;;;;30.25;27.00;;;;;1.18;88.64;101849.94;3725441;37;20012;-61
2021/01/02 08:25:42;;;;;;;;;36.50;32.00;;;;;1.18;88.47;101861.47;3725617;37;19999;-61
2021/01/02 08:28:09;;;;;;;;;28.50;28.25;;;;;0.96;88.35;101848.59;3725796;37;20023;-64
2021/01/02 08:30:38;;;;;;;;;42.00;35.00;;;;;0.98;88.34;101876.00;3725782;38;19995;-61
2021/01/02 08:33:08;;;;;;;;;43.75;34.50;;;;;0.86;88.42;101883.84;3725297;37;20006;-63
2021/01/02 08:35:36;;;;;;;;;42.75;34.25;;;;;0.93;88.70;101885.22;3725898;37;20353;-63
2021/01/02 08:38:09;;;;;;;;;42.75;36.50;;;;;1.15;88.87;101887.47;3735597;37;20019;-62
2021/01/02 08:41:00;;;;;;;;;29.50;27.75;;;;;1.16;88.51;101891.84;3733765;38;20007;-63
2021/01/02 08:43:29;;;;;;;;;29.50;28.50;;;;;1.24;88.55;101892.25;3726067;37;20004;-63
2021/01/02 08:46:09;;;;;;;;;33.00;30.50;;;;;1.26;88.60;101890.34;3732870;38;20292;-61
2021/01/02 08:48:45;;;;;;;;;41.50;35.75;;;;;1.35;89.01;101876.47;3728552;37;20233;-61
2021/01/02 08:51:28;;;;;;;;;43.00;35.50;;;;;1.72;88.83;101892.91;3726450;37;19986;-62
2021/01/02 08:53:54;;;;;;;;;29.25;27.00;;;;;1.72;88.28;101891.09;3725254;38;20052;-61
2021/01/02 08:56:32;;;;;;;;;46.75;38.75;;;;;1.83;88.26;101888.63;3725912;37;19975;-60
2021/01/02 08:59:01;;;;;;;;;54.00;45.50;;;;;1.99;88.52;101892.06;3725469;37;20034;-61
2021/01/02 09:01:57;;;;;;;;;39.50;36.25;;;;;1.91;88.01;101881.00;3725446;38;20144;-61
2021/01/02 09:04:24;;;;;;;;;33.00;29.25;;;;;2.02;88.00;101892.81;3725707;37;19966;-61
2021/01/02 09:07:01;;;;;;;;;32.50;28.50;;;;;2.09;88.02;101889.66;3725899;37;19967;-60
2021/01/02 09:09:28;;;;;;;;;36.00;32.75;;;;;2.12;88.21;101889.44;3725887;37;19975;-60
2021/01/02 09:11:54;;;;;;;;;41.00;31.00;;;;;2.13;88.04;101888.50;3725719;37;19953;-59
2021/01/02 09:14:32;;;;;;;;;42.50;33.75;;;;;2.22;88.17;101885.25;3725816;37;19953;-61
2021/01/02 09:17:03;;;;;;;;;41.00;36.25;;;;;2.41;88.38;101897.44;3725835;37;19946;-61
2021/01/02 09:19:30;;;;;;;;;40.00;29.00;;;;;2.33;87.89;101901.44;3725382;37;19944;-60
2021/01/02 09:21:58;;;;;;;;;33.25;27.25;;;;;2.33;87.87;101896.09;3725445;38;19959;-61
2021/01/02 09:24:25;;;;;;;;;39.75;36.75;;;;;2.26;87.61;101893.94;3726154;38;19936;-60
2021/01/02 09:26:52;;;;;;;;;34.75;29.50;;;;;2.15;87.46;101899.94;3725420;37;19941;-62
2021/01/02 09:29:19;;;;;;;;;33.25;26.00;;;;;2.10;87.71;101872.66;3726504;37;19934;-60
2021/01/02 09:31:46;;;;;;;;;30.25;29.00;;;;;2.35;87.79;101890.66;3725985;38;19929;-59
2021/01/02 09:34:13;;;;;;;;;33.50;27.50;;;;;2.50;87.91;101891.50;3725250;38;19941;-61
2021/01/02 09:36:40;;;;;;;;;29.00;26.75;;;;;2.59;87.40;101899.78;3725351;38;19921;-61
2021/01/02 09:39:07;;;;;;;;;34.75;31.00;;;;;2.57;87.48;101895.50;3725539;38;19911;-61
2021/01/02 09:41:34;;;;;;;;;35.25;30.75;;;;;2.59;87.35;101901.59;3725386;37;19930;-60
2021/01/02 09:44:03;;;;;;;;;33.50;32.50;;;;;2.67;87.29;101891.25;3723088;37;19903;-61
2021/01/02 09:46:30;;;;;;;;;31.00;28.50;;;;;2.65;87.40;101891.34;3724817;38;19917;-61
2021/01/02 09:48:58;;;;;;;;;37.75;32.75;;;;;2.75;87.60;101888.06;3725788;38;19883;-60
2021/01/02 09:51:29;;;;;;;;;50.00;36.50;;;;;2.81;87.17;101883.19;3725775;37;19884;-60
2021/01/02 09:54:02;;;;;;;;;45.75;35.25;;;;;2.93;87.22;101886.84;3723424;37;19917;-61
2021/01/02 09:56:29;;;;;;;;;28.50;27.50;;;;;2.85;86.89;101865.97;3725677;38;19896;-60
2021/01/02 09:58:56;;;;;;;;;36.50;33.75;;;;;2.95;86.72;101883.12;3725301;38;19863;-61
2021/01/02 10:01:25;;;;;;;;;44.50;36.50;;;;;3.13;86.88;101881.00;3724666;37;19901;-62
2021/01/02 10:03:52;;;;;;;;;44.75;36.75;;;;;3.14;86.65;101873.84;3722770;37;19884;-60
2021/01/02 10:06:19;;;;;;;;;38.00;34.50;;;;;3.05;86.37;101874.50;3724808;37;19878;-60
2021/01/02 10:08:47;;;;;;;;;33.75;30.25;;;;;3.11;86.41;101863.38;3725177;38;19932;-60
2021/01/02 10:11:20;;;;;;;;;33.75;31.25;;;;;3.17;86.77;101866.47;3726133;37;19858;-60
2021/01/02 10:13:47;;;;;;;;;33.75;29.50;;;;;3.36;86.58;101865.22;3723839;37;19878;-61
2021/01/02 10:16:18;;;;;;;;;31.50;27.25;;;;;3.32;86.06;101853.87;3725050;38;19872;-63
2021/01/02 10:18:45;;;;;;;;;28.25;24.00;;;;;3.32;85.98;101851.19;3726819;38;19850;-61
2021/01/02 10:21:12;;;;;;;;;27.50;24.00;;;;;3.16;85.73;101855.88;3725489;38;19844;-62
2021/01/02 10:23:39;;;;;;;;;23.00;22.00;;;;;3.13;86.14;101850.72;3719701;37;19872;-60
2021/01/02 10:26:08;;;;;;;;;33.00;28.75;;;;;3.18;86.30;101845.94;3715996;38;19843;-60
2021/01/02 10:28:34;;;;;;;;;38.25;34.25;;;;;3.26;86.50;101835.56;3720888;37;19870;-62
2021/01/02 10:31:01;;;;;;;;;40.00;29.25;;;;;3.28;86.07;101844.34;3724386;38;19850;-61
2021/01/02 10:33:27;;;;;;;;;36.50;33.00;;;;;3.24;86.10;101842.84;3723216;37;19863;-61
2021/01/02 10:35:53;;;;;;;;;35.00;31.00;;;;;3.24;86.07;101833.00;3725473;38;19850;-61
2021/01/02 10:38:19;;;;;;;;;34.25;30.50;;;;;3.19;86.19;101824.41;3725804;37;19858;-61
2021/01/02 10:40:46;;;;;;;;;27.00;23.75;;;;;3.22;86.35;101824.22;3725716;38;19851;-61
2021/01/02 10:43:12;;;;;;;;;23.00;20.75;;;;;3.12;86.14;101804.41;3723799;38;19815;-61
2021/01/02 10:45:38;;;;;;;;;34.75;30.00;;;;;3.31;86.05;101820.06;3724936;37;19939;-60
2021/01/02 10:48:05;;;;;;;;;35.25;30.50;;;;;3.34;86.28;101803.78;3725750;37;19806;-62
2021/01/02 10:50:32;;;;;;;;;30.00;27.00;;;;;3.53;86.01;101822.94;3725635;37;19834;-60
2021/01/02 10:52:58;;;;;;;;;29.50;27.75;;;;;3.54;85.86;101822.00;3724921;38;19834;-61
2021/01/02 10:55:26;;;;;;;;;27.00;26.50;;;;;3.48;85.51;101822.41;3724607;37;19804;-60
2021/01/02 10:57:53;;;;;;;;;32.50;28.00;;;;;3.57;86.08;101815.56;3726146;38;19796;-61
2021/01/02 11:00:26;;;;;;;;;30.75;26.00;;;;;3.70;86.27;101813.72;3725836;38;19836;-61
2021/01/02 11:02:53;;;;;;;;;29.00;24.50;;;;;3.77;85.78;101806.09;3724863;38;19823;-61
2021/01/02 11:05:21;;;;;;;;;32.75;30.25;;;;;3.92;86.00;101805.00;3724642;38;19816;-60
2021/01/02 11:07:48;;;;;;;;;31.75;30.00;;;;;3.95;85.54;101810.16;3725698;38;19777;-60
2021/01/02 11:10:17;;;;;;;;;34.00;31.00;;;;;3.96;85.54;101810.03;3725736;37;19808;-60
2021/01/02 11:12:43;;;;;;;;;38.75;28.75;;;;;3.89;85.42;101808.75;3724927;38;19801;-61
2021/01/02 11:15:11;;;;;;;;;37.25;32.25;;;;;3.88;85.17;101803.53;3724475;38;19825;-61
2021/01/02 11:17:41;;;;;;;;;33.00;29.25;;;;;3.92;85.29;101800.50;3725652;38;17549;-60
2021/01/02 11:20:09;;;;;;;;;31.50;30.75;;;;;3.99;85.44;101798.25;3725452;37;19780;-60
2021/01/02 11:22:35;;;;;;;;;32.75;32.00;;;;;4.01;85.36;101792.78;3724993;37;19765;-60
2021/01/02 11:25:03;;;;;;;;;37.00;34.25;;;;;4.15;85.11;101801.53;3724552;38;19797;-62
2021/01/02 11:27:29;;;;;;;;;42.00;35.00;;;;;4.14;84.76;101791.78;3725734;38;19897;-61
2021/01/02 11:29:55;;;;;;;;;40.75;37.50;;;;;4.25;85.03;101799.87;3725630;38;19763;-60
2021/01/02 11:32:32;;;;;;;;;33.25;30.75;;;;;4.40;85.16;101791.66;3725210;38;19768;-62
2021/01/02 11:35:00;;;;;;;;;29.75;25.50;;;;;4.47;84.88;101779.53;3724669;38;19770;-60
2021/01/02 11:37:26;;;;;;;;;31.25;26.75;;;;;4.56;84.56;101785.06;3725878;37;19766;-58
2021/01/02 11:39:52;;;;;;;;;26.75;22.50;;;;;4.69;84.47;101779.59;3725568;38;19771;-59